Terminal Aerodrome Forecast
Issued by NWS Jackson, MS

Home | Current Version | Previous Version | Text Only | Print | Product List | Glossary On
Versions: 1 2 3 4 5 6 7 8 9 10
252
FTUS44 KJAN 230535
TAFMEI
TAF
KMEI 230535Z 2306/2406 30006KT P6SM VCSH SCT015 BKN035
     FM231000 32008KT P6SM BKN008 BKN050
     FM231300 31011G20KT P6SM BKN015 BKN025
     FM240400 33005KT P6SM FEW025 SCT250=

USA.gov is the U.S. government's official web portal to all federal, state and local government web resources and services.